DAL553 KLAX-KPHX
Flight info
| Callsign | DAL553 |
|---|---|
| Flight time | 0h 53m |
| Altitude | 39000 |
| Route | DOTSS2 CNERY BLH HYDRR1 |
| Aircraft | A20N/M-SDE1FGHILORVWXY/LB1 |
Departure
| Time | 2026-05-04 01:27 |
|---|---|
| Airport | Los Angeles International Airport (KLAX) |
Arrival
| Time | 2026-05-04 02:21 |
|---|---|
| Airport | Phoenix Sky Harbor International Airport (KPHX) |
| Time | Latitude | Longitude | Altitude | Speed | Heading |
|---|---|---|---|---|---|
| 2026-05-04 01:04 | 33.94044 | -118.40254 | 122 ft | 0 kts | 84° |
| 2026-05-04 01:16 | 33.94044 | -118.40261 | 122 ft | 1 kts | 88° |
| 2026-05-04 01:16 | 33.94044 | -118.40270 | 124 ft | 1 kts | 94° |
| 2026-05-04 01:16 | 33.94044 | -118.40279 | 123 ft | 1 kts | 104° |
| 2026-05-04 01:16 | 33.94046 | -118.40288 | 122 ft | 1 kts | 111° |
| 2026-05-04 01:17 | 33.94049 | -118.40297 | 122 ft | 1 kts | 118° |
| 2026-05-04 01:17 | 33.94053 | -118.40305 | 124 ft | 1 kts | 138° |
| 2026-05-04 01:17 | 33.94059 | -118.40311 | 122 ft | 1 kts | 157° |
| 2026-05-04 01:17 | 33.94066 | -118.40314 | 123 ft | 0 kts | 174° |
| 2026-05-04 01:18 | 33.94061 | -118.40313 | 123 ft | 1 kts | 174° |
| 2026-05-04 01:18 | 33.94054 | -118.40312 | 124 ft | 1 kts | 174° |
| 2026-05-04 01:18 | 33.94043 | -118.40311 | 121 ft | 1 kts | 174° |
| 2026-05-04 01:18 | 33.94033 | -118.40310 | 123 ft | 1 kts | 174° |
| 2026-05-04 01:19 | 33.94029 | -118.40309 | 121 ft | 0 kts | 174° |
| 2026-05-04 01:23 | 33.94014 | -118.40307 | 123 ft | 6 kts | 174° |
| 2026-05-04 01:23 | 33.93950 | -118.40299 | 123 ft | 12 kts | 173° |
| 2026-05-04 01:23 | 33.93891 | -118.40289 | 121 ft | 11 kts | 171° |
| 2026-05-04 01:23 | 33.93858 | -118.40202 | 125 ft | 12 kts | 84° |
| 2026-05-04 01:24 | 33.93870 | -118.40069 | 124 ft | 19 kts | 84° |
| 2026-05-04 01:24 | 33.93890 | -118.39886 | 125 ft | 23 kts | 84° |
| 2026-05-04 01:24 | 33.93913 | -118.39681 | 123 ft | 26 kts | 83° |
| 2026-05-04 01:24 | 33.93936 | -118.39441 | 124 ft | 31 kts | 83° |
| 2026-05-04 01:25 | 33.93955 | -118.39261 | 122 ft | 33 kts | 83° |
| 2026-05-04 01:25 | 33.93981 | -118.39007 | 125 ft | 30 kts | 83° |
| 2026-05-04 01:25 | 33.94007 | -118.38738 | 125 ft | 34 kts | 83° |
| 2026-05-04 01:25 | 33.94037 | -118.38447 | 123 ft | 35 kts | 84° |
| 2026-05-04 01:26 | 33.94064 | -118.38185 | 125 ft | 27 kts | 83° |
| 2026-05-04 01:26 | 33.94059 | -118.38011 | 123 ft | 16 kts | 147° |
| 2026-05-04 01:26 | 33.93985 | -118.38034 | 124 ft | 7 kts | 257° |
| 2026-05-04 01:26 | 33.93984 | -118.38043 | 125 ft | 4 kts | 261° |
| 2026-05-04 01:27 | 33.93963 | -118.38224 | 125 ft | 38 kts | 263° |
| 2026-05-04 01:27 | 33.93896 | -118.38865 | 121 ft | 115 kts | 263° |
| 2026-05-04 01:27 | 33.93782 | -118.40044 | 353 ft | 156 kts | 263° |
| 2026-05-04 01:27 | 33.93638 | -118.41372 | 1134 ft | 161 kts | 262° |
| 2026-05-04 01:28 | 33.93472 | -118.42732 | 1963 ft | 172 kts | 261° |
| 2026-05-04 01:28 | 33.93312 | -118.44244 | 2626 ft | 196 kts | 261° |
| 2026-05-04 01:28 | 33.92921 | -118.45928 | 3296 ft | 223 kts | 247° |
| 2026-05-04 01:28 | 33.92058 | -118.47607 | 3982 ft | 247 kts | 232° |
| 2026-05-04 01:29 | 33.90943 | -118.49278 | 4660 ft | 258 kts | 232° |
| 2026-05-04 01:29 | 33.89804 | -118.50933 | 5105 ft | 258 kts | 231° |
| 2026-05-04 01:29 | 33.88618 | -118.52602 | 5567 ft | 263 kts | 231° |
| 2026-05-04 01:29 | 33.87435 | -118.54248 | 6019 ft | 260 kts | 229° |
| 2026-05-04 01:30 | 33.85947 | -118.55537 | 6477 ft | 270 kts | 205° |
| 2026-05-04 01:30 | 33.84119 | -118.55925 | 6900 ft | 276 kts | 180° |
| 2026-05-04 01:30 | 33.82218 | -118.55491 | 7344 ft | 278 kts | 170° |
| 2026-05-04 01:30 | 33.80318 | -118.54962 | 7889 ft | 282 kts | 169° |
| 2026-05-04 01:31 | 33.78413 | -118.54429 | 9295 ft | 277 kts | 170° |
| 2026-05-04 01:31 | 33.76539 | -118.53909 | 10786 ft | 280 kts | 170° |
| 2026-05-04 01:31 | 33.74552 | -118.53372 | 11596 ft | 305 kts | 171° |
| 2026-05-04 01:31 | 33.72406 | -118.52723 | 12281 ft | 331 kts | 163° |
| 2026-05-04 01:32 | 33.70383 | -118.51266 | 13303 ft | 349 kts | 142° |
| 2026-05-04 01:32 | 33.68841 | -118.48957 | 14403 ft | 365 kts | 123° |
| 2026-05-04 01:32 | 33.67827 | -118.46074 | 15221 ft | 383 kts | 114° |
| 2026-05-04 01:32 | 33.66949 | -118.43048 | 16074 ft | 395 kts | 113° |
| 2026-05-04 01:33 | 33.66061 | -118.39885 | 16917 ft | 406 kts | 114° |
| 2026-05-04 01:33 | 33.65177 | -118.36616 | 17745 ft | 419 kts | 110° |
| 2026-05-04 01:33 | 33.64602 | -118.33119 | 18512 ft | 435 kts | 101° |
| 2026-05-04 01:33 | 33.64455 | -118.29445 | 19309 ft | 445 kts | 92° |
| 2026-05-04 01:34 | 33.64479 | -118.25694 | 20104 ft | 452 kts | 93° |
| 2026-05-04 01:34 | 33.64491 | -118.21890 | 20879 ft | 459 kts | 93° |
| 2026-05-04 01:34 | 33.64494 | -118.18027 | 21649 ft | 467 kts | 93° |
| 2026-05-04 01:34 | 33.64494 | -118.14103 | 22427 ft | 474 kts | 93° |
| 2026-05-04 01:35 | 33.64491 | -118.10117 | 23217 ft | 481 kts | 93° |
| 2026-05-04 01:35 | 33.64486 | -118.06076 | 23903 ft | 488 kts | 93° |
| 2026-05-04 01:35 | 33.64479 | -118.01975 | 24546 ft | 494 kts | 93° |
| 2026-05-04 01:35 | 33.64472 | -117.97822 | 25156 ft | 501 kts | 93° |
| 2026-05-04 01:36 | 33.64463 | -117.93673 | 25728 ft | 507 kts | 93° |
| 2026-05-04 01:36 | 33.64452 | -117.89406 | 26276 ft | 515 kts | 93° |
| 2026-05-04 01:36 | 33.64441 | -117.85080 | 26846 ft | 522 kts | 93° |
| 2026-05-04 01:36 | 33.64281 | -117.80703 | 27399 ft | 524 kts | 101° |
| 2026-05-04 01:37 | 33.63645 | -117.76393 | 27907 ft | 524 kts | 110° |
| 2026-05-04 01:37 | 33.62626 | -117.72181 | 28410 ft | 527 kts | 113° |
| 2026-05-04 01:37 | 33.61571 | -117.67942 | 28946 ft | 533 kts | 113° |
| 2026-05-04 01:37 | 33.60510 | -117.63658 | 29431 ft | 539 kts | 113° |
| 2026-05-04 01:38 | 33.59437 | -117.59318 | 29907 ft | 545 kts | 113° |
| 2026-05-04 01:38 | 33.58352 | -117.54931 | 30338 ft | 551 kts | 113° |
| 2026-05-04 01:38 | 33.57269 | -117.50559 | 30738 ft | 556 kts | 113° |
| 2026-05-04 01:38 | 33.56157 | -117.46079 | 31114 ft | 562 kts | 113° |
| 2026-05-04 01:39 | 33.55038 | -117.41574 | 31588 ft | 566 kts | 113° |
| 2026-05-04 01:39 | 33.53913 | -117.37044 | 32088 ft | 567 kts | 114° |
| 2026-05-04 01:39 | 33.52784 | -117.32503 | 32658 ft | 567 kts | 114° |
| 2026-05-04 01:39 | 33.51652 | -117.27961 | 33205 ft | 569 kts | 114° |
| 2026-05-04 01:40 | 33.50774 | -117.23290 | 33696 ft | 580 kts | 105° |
| 2026-05-04 01:40 | 33.50406 | -117.18439 | 34183 ft | 588 kts | 96° |
| 2026-05-04 01:40 | 33.50352 | -117.13529 | 34695 ft | 588 kts | 95° |
| 2026-05-04 01:40 | 33.50299 | -117.08647 | 35257 ft | 585 kts | 95° |
| 2026-05-04 01:41 | 33.50238 | -117.03771 | 35822 ft | 583 kts | 95° |
| 2026-05-04 01:41 | 33.50174 | -116.98993 | 36352 ft | 580 kts | 95° |
| 2026-05-04 01:41 | 33.50104 | -116.94169 | 36903 ft | 578 kts | 95° |
| 2026-05-04 01:41 | 33.50032 | -116.89351 | 37433 ft | 576 kts | 95° |
| 2026-05-04 01:42 | 33.49958 | -116.84558 | 37925 ft | 573 kts | 95° |
| 2026-05-04 01:42 | 33.49882 | -116.79802 | 38540 ft | 569 kts | 95° |
| 2026-05-04 01:42 | 33.49805 | -116.75075 | 38819 ft | 566 kts | 95° |
| 2026-05-04 01:43 | 33.49646 | -116.65693 | 38880 ft | 561 kts | 95° |
| 2026-05-04 01:43 | 33.49481 | -116.56314 | 38875 ft | 562 kts | 95° |
| 2026-05-04 01:44 | 33.49307 | -116.46983 | 38818 ft | 565 kts | 95° |
| 2026-05-04 01:44 | 33.49140 | -116.37569 | 38801 ft | 564 kts | 95° |
| 2026-05-04 01:45 | 33.49008 | -116.28208 | 38804 ft | 557 kts | 95° |
| 2026-05-04 01:45 | 33.48779 | -116.14070 | 38734 ft | 568 kts | 95° |
| 2026-05-04 01:46 | 33.49043 | -116.04676 | 38732 ft | 571 kts | 83° |
| 2026-05-04 01:46 | 33.50932 | -115.95438 | 38729 ft | 570 kts | 68° |
| 2026-05-04 01:47 | 33.53565 | -115.86507 | 38723 ft | 567 kts | 68° |
| 2026-05-04 01:47 | 33.56173 | -115.77561 | 38734 ft | 568 kts | 68° |
| 2026-05-04 01:48 | 33.58768 | -115.68632 | 38741 ft | 565 kts | 69° |
| 2026-05-04 01:48 | 33.61345 | -115.59741 | 38734 ft | 568 kts | 69° |
| 2026-05-04 01:49 | 33.63272 | -115.50569 | 38744 ft | 568 kts | 87° |
| 2026-05-04 01:49 | 33.63284 | -115.45852 | 38738 ft | 564 kts | 99° |
| 2026-05-04 01:49 | 33.62677 | -115.41219 | 38734 ft | 558 kts | 107° |
| 2026-05-04 01:50 | 33.61421 | -115.32023 | 38753 ft | 561 kts | 101° |
| 2026-05-04 01:50 | 33.60888 | -115.22582 | 38732 ft | 570 kts | 96° |
| 2026-05-04 01:51 | 33.60628 | -115.13076 | 38727 ft | 570 kts | 95° |
| 2026-05-04 01:51 | 33.60387 | -115.03611 | 38723 ft | 570 kts | 95° |
| 2026-05-04 01:52 | 33.60127 | -114.94133 | 38719 ft | 566 kts | 95° |
| 2026-05-04 01:52 | 33.59858 | -114.84687 | 38719 ft | 567 kts | 95° |
| 2026-05-04 01:53 | 33.59360 | -114.75274 | 38723 ft | 563 kts | 103° |
| 2026-05-04 01:53 | 33.57771 | -114.66138 | 38723 ft | 559 kts | 108° |
| 2026-05-04 01:54 | 33.56095 | -114.57037 | 38725 ft | 559 kts | 108° |
| 2026-05-04 01:54 | 33.54414 | -114.47923 | 38732 ft | 559 kts | 108° |
| 2026-05-04 01:55 | 33.52728 | -114.38830 | 38739 ft | 559 kts | 108° |
| 2026-05-04 01:55 | 33.51879 | -114.34267 | 38607 ft | 563 kts | 109° |
| 2026-05-04 01:55 | 33.51023 | -114.29687 | 38373 ft | 565 kts | 109° |
| 2026-05-04 01:56 | 33.50174 | -114.25147 | 38105 ft | 565 kts | 109° |
| 2026-05-04 01:56 | 33.49312 | -114.20550 | 37831 ft | 564 kts | 109° |
| 2026-05-04 01:56 | 33.48449 | -114.15960 | 37461 ft | 565 kts | 109° |
| 2026-05-04 01:56 | 33.47581 | -114.11356 | 36760 ft | 567 kts | 108° |
| 2026-05-04 01:57 | 33.46711 | -114.06752 | 36028 ft | 567 kts | 108° |
| 2026-05-04 01:57 | 33.45837 | -114.02135 | 35177 ft | 569 kts | 108° |
| 2026-05-04 01:57 | 33.44958 | -113.97505 | 34344 ft | 570 kts | 107° |
| 2026-05-04 01:57 | 33.44076 | -113.92864 | 33467 ft | 572 kts | 107° |
| 2026-05-04 01:58 | 33.43203 | -113.88275 | 32666 ft | 570 kts | 107° |
| 2026-05-04 01:58 | 33.42326 | -113.83669 | 31873 ft | 566 kts | 107° |
| 2026-05-04 01:58 | 33.41450 | -113.79080 | 31044 ft | 560 kts | 107° |
| 2026-05-04 01:58 | 33.40590 | -113.74579 | 29889 ft | 551 kts | 107° |
| 2026-05-04 01:59 | 33.39737 | -113.70139 | 28490 ft | 544 kts | 107° |
| 2026-05-04 01:59 | 33.38899 | -113.65781 | 27487 ft | 529 kts | 107° |
| 2026-05-04 01:59 | 33.38091 | -113.61573 | 26837 ft | 508 kts | 107° |
| 2026-05-04 01:59 | 33.37314 | -113.57531 | 26470 ft | 491 kts | 107° |
| 2026-05-04 02:00 | 33.36539 | -113.53541 | 25917 ft | 494 kts | 107° |
| 2026-05-04 02:00 | 33.35758 | -113.49535 | 25208 ft | 493 kts | 107° |
| 2026-05-04 02:00 | 33.34995 | -113.45614 | 24520 ft | 488 kts | 107° |
| 2026-05-04 02:00 | 33.34231 | -113.41686 | 23734 ft | 481 kts | 107° |
| 2026-05-04 02:01 | 33.33478 | -113.37816 | 23055 ft | 475 kts | 106° |
| 2026-05-04 02:01 | 33.32741 | -113.33996 | 22425 ft | 465 kts | 105° |
| 2026-05-04 02:01 | 33.32029 | -113.30257 | 21806 ft | 456 kts | 107° |
| 2026-05-04 02:01 | 33.31310 | -113.26591 | 21185 ft | 448 kts | 107° |
| 2026-05-04 02:02 | 33.30598 | -113.23015 | 20769 ft | 437 kts | 107° |
| 2026-05-04 02:02 | 33.29897 | -113.19494 | 20202 ft | 434 kts | 107° |
| 2026-05-04 02:02 | 33.29205 | -113.16000 | 19620 ft | 429 kts | 107° |
| 2026-05-04 02:02 | 33.28526 | -113.12560 | 19159 ft | 419 kts | 107° |
| 2026-05-04 02:03 | 33.27875 | -113.09233 | 18940 ft | 399 kts | 107° |
| 2026-05-04 02:03 | 33.27497 | -113.06027 | 18522 ft | 393 kts | 96° |
| 2026-05-04 02:03 | 33.27530 | -113.02762 | 18336 ft | 394 kts | 90° |
| 2026-05-04 02:03 | 33.27623 | -112.99481 | 18016 ft | 395 kts | 91° |
| 2026-05-04 02:04 | 33.27706 | -112.96225 | 17598 ft | 388 kts | 91° |
| 2026-05-04 02:04 | 33.27786 | -112.93027 | 17212 ft | 382 kts | 91° |
| 2026-05-04 02:04 | 33.27864 | -112.89853 | 16900 ft | 380 kts | 91° |
| 2026-05-04 02:04 | 33.27940 | -112.86750 | 16720 ft | 368 kts | 91° |
| 2026-05-04 02:05 | 33.28016 | -112.83710 | 16314 ft | 363 kts | 91° |
| 2026-05-04 02:05 | 33.28178 | -112.80717 | 15869 ft | 360 kts | 86° |
| 2026-05-04 02:05 | 33.28463 | -112.77763 | 15380 ft | 353 kts | 86° |
| 2026-05-04 02:05 | 33.28740 | -112.74883 | 15119 ft | 344 kts | 86° |
| 2026-05-04 02:06 | 33.29009 | -112.72049 | 14904 ft | 344 kts | 86° |
| 2026-05-04 02:06 | 33.29276 | -112.69207 | 14693 ft | 343 kts | 86° |
| 2026-05-04 02:06 | 33.29537 | -112.66425 | 14484 ft | 340 kts | 86° |
| 2026-05-04 02:06 | 33.29798 | -112.63618 | 14273 ft | 339 kts | 87° |
| 2026-05-04 02:07 | 33.30058 | -112.60829 | 14062 ft | 336 kts | 87° |
| 2026-05-04 02:07 | 33.30316 | -112.58055 | 13853 ft | 334 kts | 87° |
| 2026-05-04 02:07 | 33.30572 | -112.55301 | 13644 ft | 333 kts | 87° |
| 2026-05-04 02:07 | 33.30825 | -112.52563 | 13412 ft | 330 kts | 87° |
| 2026-05-04 02:08 | 33.31076 | -112.49843 | 13170 ft | 328 kts | 87° |
| 2026-05-04 02:08 | 33.31326 | -112.47130 | 12946 ft | 328 kts | 87° |
| 2026-05-04 02:08 | 33.31575 | -112.44427 | 12708 ft | 325 kts | 87° |
| 2026-05-04 02:08 | 33.31820 | -112.41767 | 12479 ft | 321 kts | 87° |
| 2026-05-04 02:09 | 33.32063 | -112.39107 | 12252 ft | 322 kts | 87° |
| 2026-05-04 02:09 | 33.32305 | -112.36452 | 11857 ft | 321 kts | 87° |
| 2026-05-04 02:09 | 33.32543 | -112.33803 | 11433 ft | 318 kts | 88° |
| 2026-05-04 02:09 | 33.32781 | -112.31197 | 11039 ft | 313 kts | 88° |
| 2026-05-04 02:10 | 33.33020 | -112.28608 | 10532 ft | 312 kts | 87° |
| 2026-05-04 02:10 | 33.33178 | -112.26909 | 10285 ft | 308 kts | 88° |
| 2026-05-04 02:10 | 33.33489 | -112.23524 | 9711 ft | 304 kts | 88° |
| 2026-05-04 02:10 | 33.33640 | -112.21862 | 9473 ft | 300 kts | 88° |
| 2026-05-04 02:11 | 33.33860 | -112.19449 | 9295 ft | 282 kts | 88° |
| 2026-05-04 02:11 | 33.34069 | -112.17199 | 9115 ft | 263 kts | 89° |
| 2026-05-04 02:11 | 33.34318 | -112.14421 | 9018 ft | 252 kts | 89° |
| 2026-05-04 02:11 | 33.34498 | -112.12314 | 9000 ft | 254 kts | 88° |
| 2026-05-04 02:12 | 33.34622 | -112.10889 | 9013 ft | 254 kts | 88° |
| 2026-05-04 02:12 | 33.34766 | -112.08827 | 8988 ft | 251 kts | 94° |
| 2026-05-04 02:12 | 33.34734 | -112.06751 | 8768 ft | 251 kts | 95° |
| 2026-05-04 02:12 | 33.34701 | -112.04644 | 8365 ft | 255 kts | 95° |
| 2026-05-04 02:13 | 33.34673 | -112.02482 | 7937 ft | 257 kts | 95° |
| 2026-05-04 02:13 | 33.34646 | -112.00376 | 7632 ft | 256 kts | 95° |
| 2026-05-04 02:13 | 33.34619 | -111.98250 | 7354 ft | 254 kts | 95° |
| 2026-05-04 02:13 | 33.34594 | -111.96155 | 7148 ft | 248 kts | 95° |
| 2026-05-04 02:14 | 33.34569 | -111.94083 | 6827 ft | 250 kts | 95° |
| 2026-05-04 02:14 | 33.34555 | -111.92004 | 6543 ft | 250 kts | 93° |
| 2026-05-04 02:14 | 33.34592 | -111.89942 | 6373 ft | 247 kts | 92° |
| 2026-05-04 02:14 | 33.34645 | -111.87871 | 5990 ft | 252 kts | 92° |
| 2026-05-04 02:15 | 33.34699 | -111.85756 | 5558 ft | 257 kts | 92° |
| 2026-05-04 02:15 | 33.34748 | -111.83612 | 5055 ft | 266 kts | 92° |
| 2026-05-04 02:15 | 33.34952 | -111.81380 | 4555 ft | 275 kts | 72° |
| 2026-05-04 02:15 | 33.35935 | -111.79513 | 4444 ft | 259 kts | 43° |
| 2026-05-04 02:16 | 33.37470 | -111.78496 | 4323 ft | 258 kts | 9° |
| 2026-05-04 02:16 | 33.39232 | -111.78267 | 4225 ft | 251 kts | 360° |
| 2026-05-04 02:16 | 33.40968 | -111.78129 | 4116 ft | 251 kts | 355° |
| 2026-05-04 02:16 | 33.42570 | -111.78691 | 4011 ft | 235 kts | 316° |
| 2026-05-04 02:17 | 33.43529 | -111.80168 | 3916 ft | 221 kts | 288° |
| 2026-05-04 02:17 | 33.43924 | -111.81920 | 3768 ft | 217 kts | 274° |
| 2026-05-04 02:17 | 33.44035 | -111.83722 | 3530 ft | 216 kts | 268° |
| 2026-05-04 02:17 | 33.44054 | -111.85498 | 3276 ft | 211 kts | 267° |
| 2026-05-04 02:18 | 33.44061 | -111.87234 | 2976 ft | 204 kts | 267° |
| 2026-05-04 02:18 | 33.44067 | -111.88819 | 2760 ft | 181 kts | 265° |
| 2026-05-04 02:18 | 33.44069 | -111.90247 | 2528 ft | 164 kts | 265° |
| 2026-05-04 02:18 | 33.44069 | -111.91595 | 2328 ft | 161 kts | 264° |
| 2026-05-04 02:19 | 33.44075 | -111.92899 | 2150 ft | 149 kts | 263° |
| 2026-05-04 02:19 | 33.44086 | -111.94047 | 1992 ft | 130 kts | 265° |
| 2026-05-04 02:19 | 33.44067 | -111.95196 | 1849 ft | 134 kts | 266° |
| 2026-05-04 02:19 | 33.44082 | -111.96266 | 1647 ft | 123 kts | 266° |
| 2026-05-04 02:20 | 33.44082 | -111.97249 | 1506 ft | 114 kts | 268° |
| 2026-05-04 02:20 | 33.44087 | -111.98149 | 1353 ft | 106 kts | 268° |
| 2026-05-04 02:20 | 33.44082 | -111.99042 | 1221 ft | 104 kts | 268° |
| 2026-05-04 02:20 | 33.44083 | -111.99854 | 1136 ft | 89 kts | 269° |
| 2026-05-04 02:21 | 33.44083 | -112.00413 | 1130 ft | 44 kts | 270° |
| 2026-05-04 02:21 | 33.44083 | -112.00632 | 1130 ft | 19 kts | 264° |
| 2026-05-04 02:21 | 33.44015 | -112.00733 | 1132 ft | 14 kts | 194° |
| 2026-05-04 02:21 | 33.43983 | -112.00736 | 1133 ft | 0 kts | 180° |
| 2026-05-04 02:22 | 33.43977 | -112.00736 | 1133 ft | 0 kts | 180° |
| 2026-05-04 02:22 | 33.43963 | -112.00736 | 1133 ft | 3 kts | 179° |
| 2026-05-04 02:22 | 33.43958 | -112.00736 | 1132 ft | 2 kts | 178° |
| 2026-05-04 02:22 | 33.43923 | -112.00733 | 1135 ft | 8 kts | 172° |
| 2026-05-04 02:23 | 33.43901 | -112.00684 | 1132 ft | 0 kts | 84° |
| 2026-05-04 02:23 | 33.43901 | -112.00681 | 1132 ft | 0 kts | 89° |
| 2026-05-04 02:24 | 33.43901 | -112.00677 | 1130 ft | 2 kts | 89° |
| 2026-05-04 02:24 | 33.43900 | -112.00631 | 1130 ft | 9 kts | 91° |
| 2026-05-04 02:24 | 33.43900 | -112.00573 | 1130 ft | 0 kts | 88° |
| 2026-05-04 02:24 | 33.43900 | -112.00547 | 1130 ft | 4 kts | 90° |
| 2026-05-04 02:25 | 33.43899 | -112.00505 | 1130 ft | 0 kts | 96° |
| 2026-05-04 02:25 | 33.43898 | -112.00484 | 1130 ft | 0 kts | 91° |
| 2026-05-04 02:25 | 33.43891 | -112.00467 | 1133 ft | 4 kts | 131° |
| 2026-05-04 02:25 | 33.43849 | -112.00465 | 1133 ft | 9 kts | 187° |
| 2026-05-04 02:26 | 33.43770 | -112.00470 | 1133 ft | 12 kts | 181° |
| 2026-05-04 02:26 | 33.43679 | -112.00471 | 1133 ft | 16 kts | 180° |
| 2026-05-04 02:26 | 33.43586 | -112.00468 | 1133 ft | 11 kts | 177° |
| 2026-05-04 02:26 | 33.43492 | -112.00469 | 1131 ft | 15 kts | 181° |
| 2026-05-04 02:27 | 33.43410 | -112.00469 | 1132 ft | 7 kts | 179° |
| 2026-05-04 02:27 | 33.43343 | -112.00468 | 1133 ft | 12 kts | 180° |
| 2026-05-04 02:27 | 33.43262 | -112.00466 | 1134 ft | 14 kts | 173° |
| 2026-05-04 02:27 | 33.43215 | -112.00396 | 1135 ft | 12 kts | 94° |
| 2026-05-04 02:28 | 33.43215 | -112.00269 | 1133 ft | 18 kts | 90° |
| 2026-05-04 02:28 | 33.43215 | -112.00098 | 1132 ft | 22 kts | 90° |
| 2026-05-04 02:28 | 33.43215 | -111.99897 | 1135 ft | 25 kts | 88° |
| 2026-05-04 02:28 | 33.43216 | -111.99703 | 1132 ft | 24 kts | 90° |
| 2026-05-04 02:29 | 33.43255 | -111.99558 | 1134 ft | 17 kts | 12° |
| 2026-05-04 02:29 | 33.43353 | -111.99534 | 1133 ft | 11 kts | 355° |
| 2026-05-04 02:29 | 33.43405 | -111.99504 | 1133 ft | 6 kts | 75° |
| 2026-05-04 02:29 | 33.43405 | -111.99476 | 1135 ft | 0 kts | 89° |